sensor_id;sensor_type;location;lat;lon;timestamp;P1;durP1;ratioP1;P2;durP2;ratioP2
39788;SDS011;25478;42.626;23.320;2022-09-03T00:01:44;10.43;;;6.53;;
39788;SDS011;25478;42.626;23.320;2022-09-03T00:04:23;9.77;;;5.82;;
39788;SDS011;25478;42.626;23.320;2022-09-03T00:06:59;11.65;;;6.50;;
39788;SDS011;25478;42.626;23.320;2022-09-03T00:09:28;10.75;;;6.05;;
39788;SDS011;25478;42.626;23.320;2022-09-03T00:12:04;10.25;;;5.88;;
39788;SDS011;25478;42.626;23.320;2022-09-03T00:17:28;9.35;;;5.82;;
39788;SDS011;25478;42.626;23.320;2022-09-03T00:22:36;9.60;;;6.13;;
39788;SDS011;25478;42.626;23.320;2022-09-03T00:25:09;9.77;;;6.18;;
39788;SDS011;25478;42.626;23.320;2022-09-03T00:27:39;10.40;;;6.37;;
39788;SDS011;25478;42.626;23.320;2022-09-03T00:30:08;10.48;;;6.00;;
39788;SDS011;25478;42.626;23.320;2022-09-03T00:35:21;11.32;;;6.47;;
39788;SDS011;25478;42.626;23.320;2022-09-03T00:37:50;9.77;;;6.30;;
39788;SDS011;25478;42.626;23.320;2022-09-03T00:40:21;11.48;;;7.18;;
39788;SDS011;25478;42.626;23.320;2022-09-03T00:43:13;10.25;;;6.55;;
39788;SDS011;25478;42.626;23.320;2022-09-03T00:45:57;10.27;;;6.32;;
39788;SDS011;25478;42.626;23.320;2022-09-03T00:51:39;10.95;;;6.68;;
39788;SDS011;25478;42.626;23.320;2022-09-03T00:54:23;11.68;;;7.07;;
39788;SDS011;25478;42.626;23.320;2022-09-03T00:59:49;12.75;;;7.70;;
39788;SDS011;25478;42.626;23.320;2022-09-03T01:02:32;13.88;;;6.88;;
39788;SDS011;25478;42.626;23.320;2022-09-03T01:07:48;15.18;;;7.68;;
39788;SDS011;25478;42.626;23.320;2022-09-03T01:30:44;13.55;;;7.90;;
39788;SDS011;25478;42.626;23.320;2022-09-03T01:33:30;13.27;;;7.65;;
39788;SDS011;25478;42.626;23.320;2022-09-03T01:36:25;11.65;;;7.85;;
39788;SDS011;25478;42.626;23.320;2022-09-03T01:39:04;11.38;;;7.53;;
39788;SDS011;25478;42.626;23.320;2022-09-03T01:41:43;11.45;;;7.22;;
39788;SDS011;25478;42.626;23.320;2022-09-03T01:53:06;10.32;;;6.75;;
39788;SDS011;25478;42.626;23.320;2022-09-03T02:01:37;11.30;;;6.75;;
39788;SDS011;25478;42.626;23.320;2022-09-03T02:04:19;11.27;;;6.63;;
39788;SDS011;25478;42.626;23.320;2022-09-03T02:06:48;10.80;;;6.25;;
39788;SDS011;25478;42.626;23.320;2022-09-03T02:09:15;10.20;;;6.20;;
39788;SDS011;25478;42.626;23.320;2022-09-03T02:11:42;11.18;;;6.82;;
39788;SDS011;25478;42.626;23.320;2022-09-03T02:14:11;9.85;;;5.90;;
39788;SDS011;25478;42.626;23.320;2022-09-03T02:16:38;9.98;;;6.22;;
39788;SDS011;25478;42.626;23.320;2022-09-03T02:19:05;9.90;;;6.37;;
39788;SDS011;25478;42.626;23.320;2022-09-03T02:21:36;11.25;;;6.70;;
39788;SDS011;25478;42.626;23.320;2022-09-03T02:24:06;9.82;;;6.57;;
39788;SDS011;25478;42.626;23.320;2022-09-03T02:26:33;11.33;;;6.93;;
39788;SDS011;25478;42.626;23.320;2022-09-03T02:29:00;9.45;;;6.28;;
39788;SDS011;25478;42.626;23.320;2022-09-03T02:31:27;10.20;;;6.70;;
39788;SDS011;25478;42.626;23.320;2022-09-03T02:33:53;10.77;;;6.55;;
39788;SDS011;25478;42.626;23.320;2022-09-03T02:36:24;9.25;;;6.15;;
39788;SDS011;25478;42.626;23.320;2022-09-03T02:38:56;10.73;;;6.97;;
39788;SDS011;25478;42.626;23.320;2022-09-03T02:41:22;12.48;;;6.72;;
39788;SDS011;25478;42.626;23.320;2022-09-03T02:44:12;11.55;;;7.00;;
39788;SDS011;25478;42.626;23.320;2022-09-03T02:46:43;11.35;;;6.80;;
39788;SDS011;25478;42.626;23.320;2022-09-03T02:49:12;11.93;;;6.78;;
39788;SDS011;25478;42.626;23.320;2022-09-03T02:51:39;11.50;;;7.07;;
39788;SDS011;25478;42.626;23.320;2022-09-03T02:54:07;10.98;;;7.03;;
39788;SDS011;25478;42.626;23.320;2022-09-03T02:56:34;10.85;;;7.03;;
39788;SDS011;25478;42.626;23.320;2022-09-03T02:59:01;9.82;;;6.38;;
39788;SDS011;25478;42.626;23.320;2022-09-03T03:01:27;11.35;;;6.53;;
39788;SDS011;25478;42.626;23.320;2022-09-03T03:03:53;11.27;;;7.03;;
39788;SDS011;25478;42.626;23.320;2022-09-03T03:06:18;11.43;;;7.50;;
39788;SDS011;25478;42.626;23.320;2022-09-03T03:08:47;10.70;;;7.13;;
39788;SDS011;25478;42.626;23.320;2022-09-03T03:11:15;11.90;;;7.28;;
39788;SDS011;25478;42.626;23.320;2022-09-03T03:13:43;12.05;;;7.22;;
39788;SDS011;25478;42.626;23.320;2022-09-03T03:16:10;12.80;;;7.73;;
39788;SDS011;25478;42.626;23.320;2022-09-03T03:18:36;11.87;;;7.90;;
39788;SDS011;25478;42.626;23.320;2022-09-03T03:21:03;13.20;;;8.50;;
39788;SDS011;25478;42.626;23.320;2022-09-03T03:23:34;12.73;;;7.88;;
39788;SDS011;25478;42.626;23.320;2022-09-03T03:26:01;14.52;;;8.32;;
39788;SDS011;25478;42.626;23.320;2022-09-03T03:28:33;14.55;;;9.35;;
39788;SDS011;25478;42.626;23.320;2022-09-03T03:33:35;13.30;;;8.45;;
39788;SDS011;25478;42.626;23.320;2022-09-03T03:36:06;14.27;;;9.23;;
39788;SDS011;25478;42.626;23.320;2022-09-03T03:38:37;15.40;;;9.17;;
39788;SDS011;25478;42.626;23.320;2022-09-03T03:41:10;14.18;;;8.93;;
39788;SDS011;25478;42.626;23.320;2022-09-03T03:43:41;16.80;;;9.48;;
39788;SDS011;25478;42.626;23.320;2022-09-03T03:46:09;16.63;;;9.60;;
39788;SDS011;25478;42.626;23.320;2022-09-03T03:48:35;14.82;;;9.27;;
39788;SDS011;25478;42.626;23.320;2022-09-03T03:51:01;14.90;;;8.98;;
39788;SDS011;25478;42.626;23.320;2022-09-03T03:53:30;16.33;;;9.65;;
39788;SDS011;25478;42.626;23.320;2022-09-03T03:55:56;16.13;;;9.60;;
39788;SDS011;25478;42.626;23.320;2022-09-03T03:58:23;15.90;;;9.38;;
39788;SDS011;25478;42.626;23.320;2022-09-03T04:00:50;14.40;;;9.18;;
39788;SDS011;25478;42.626;23.320;2022-09-03T04:03:16;16.13;;;9.48;;
39788;SDS011;25478;42.626;23.320;2022-09-03T04:05:42;16.13;;;8.95;;
39788;SDS011;25478;42.626;23.320;2022-09-03T04:08:08;17.07;;;9.80;;
39788;SDS011;25478;42.626;23.320;2022-09-03T04:10:34;15.15;;;9.13;;
39788;SDS011;25478;42.626;23.320;2022-09-03T04:13:02;17.58;;;9.82;;
39788;SDS011;25478;42.626;23.320;2022-09-03T04:15:28;16.43;;;9.30;;
39788;SDS011;25478;42.626;23.320;2022-09-03T04:17:54;16.77;;;10.15;;
39788;SDS011;25478;42.626;23.320;2022-09-03T04:20:19;17.20;;;9.88;;
39788;SDS011;25478;42.626;23.320;2022-09-03T04:22:46;18.15;;;9.30;;
39788;SDS011;25478;42.626;23.320;2022-09-03T04:25:11;16.13;;;9.52;;
39788;SDS011;25478;42.626;23.320;2022-09-03T04:27:37;17.25;;;8.93;;
39788;SDS011;25478;42.626;23.320;2022-09-03T04:30:03;15.98;;;9.10;;
39788;SDS011;25478;42.626;23.320;2022-09-03T04:32:29;13.30;;;8.50;;
39788;SDS011;25478;42.626;23.320;2022-09-03T04:35:13;13.60;;;8.27;;
39788;SDS011;25478;42.626;23.320;2022-09-03T04:37:38;14.00;;;8.70;;
39788;SDS011;25478;42.626;23.320;2022-09-03T04:40:04;14.10;;;8.38;;
39788;SDS011;25478;42.626;23.320;2022-09-03T04:42:30;13.97;;;8.60;;
39788;SDS011;25478;42.626;23.320;2022-09-03T04:44:56;16.20;;;9.13;;
39788;SDS011;25478;42.626;23.320;2022-09-03T04:47:21;13.68;;;8.23;;
39788;SDS011;25478;42.626;23.320;2022-09-03T04:49:47;14.83;;;9.17;;
39788;SDS011;25478;42.626;23.320;2022-09-03T04:52:12;14.65;;;8.85;;
39788;SDS011;25478;42.626;23.320;2022-09-03T04:54:38;15.32;;;8.95;;
39788;SDS011;25478;42.626;23.320;2022-09-03T04:57:03;13.35;;;8.63;;
39788;SDS011;25478;42.626;23.320;2022-09-03T04:59:29;13.55;;;8.05;;
39788;SDS011;25478;42.626;23.320;2022-09-03T05:01:54;14.90;;;8.10;;
39788;SDS011;25478;42.626;23.320;2022-09-03T05:04:20;13.23;;;7.97;;
39788;SDS011;25478;42.626;23.320;2022-09-03T05:06:46;12.27;;;7.68;;
39788;SDS011;25478;42.626;23.320;2022-09-03T05:09:12;12.67;;;7.77;;
39788;SDS011;25478;42.626;23.320;2022-09-03T05:11:39;12.05;;;7.60;;
39788;SDS011;25478;42.626;23.320;2022-09-03T05:14:05;12.15;;;6.82;;
39788;SDS011;25478;42.626;23.320;2022-09-03T05:16:30;11.38;;;6.63;;
39788;SDS011;25478;42.626;23.320;2022-09-03T05:18:57;12.18;;;6.35;;
39788;SDS011;25478;42.626;23.320;2022-09-03T05:21:24;12.70;;;7.13;;
39788;SDS011;25478;42.626;23.320;2022-09-03T05:23:51;10.25;;;6.35;;
39788;SDS011;25478;42.626;23.320;2022-09-03T05:26:18;12.45;;;6.90;;
39788;SDS011;25478;42.626;23.320;2022-09-03T05:28:45;11.43;;;7.07;;
39788;SDS011;25478;42.626;23.320;2022-09-03T05:31:12;10.17;;;6.70;;
39788;SDS011;25478;42.626;23.320;2022-09-03T05:33:40;11.45;;;7.30;;
39788;SDS011;25478;42.626;23.320;2022-09-03T05:36:09;10.70;;;6.50;;
39788;SDS011;25478;42.626;23.320;2022-09-03T05:38:36;10.93;;;7.18;;
39788;SDS011;25478;42.626;23.320;2022-09-03T05:41:03;10.60;;;6.72;;
39788;SDS011;25478;42.626;23.320;2022-09-03T05:43:31;10.30;;;6.35;;
39788;SDS011;25478;42.626;23.320;2022-09-03T05:45:57;9.88;;;6.40;;
39788;SDS011;25478;42.626;23.320;2022-09-03T05:48:30;9.50;;;6.15;;
39788;SDS011;25478;42.626;23.320;2022-09-03T05:50:58;9.60;;;5.93;;
39788;SDS011;25478;42.626;23.320;2022-09-03T05:53:25;9.73;;;5.60;;
39788;SDS011;25478;42.626;23.320;2022-09-03T05:55:58;9.27;;;6.05;;
39788;SDS011;25478;42.626;23.320;2022-09-03T05:58:29;9.88;;;6.07;;
39788;SDS011;25478;42.626;23.320;2022-09-03T06:00:58;8.07;;;5.68;;
39788;SDS011;25478;42.626;23.320;2022-09-03T06:03:23;11.30;;;5.47;;
39788;SDS011;25478;42.626;23.320;2022-09-03T06:05:50;8.68;;;5.78;;
39788;SDS011;25478;42.626;23.320;2022-09-03T06:08:17;8.80;;;5.90;;
39788;SDS011;25478;42.626;23.320;2022-09-03T06:10:43;7.32;;;4.95;;
39788;SDS011;25478;42.626;23.320;2022-09-03T06:13:09;8.57;;;5.32;;
39788;SDS011;25478;42.626;23.320;2022-09-03T06:15:36;9.57;;;5.50;;
39788;SDS011;25478;42.626;23.320;2022-09-03T06:18:01;8.02;;;5.15;;
39788;SDS011;25478;42.626;23.320;2022-09-03T06:20:27;10.30;;;6.22;;
39788;SDS011;25478;42.626;23.320;2022-09-03T06:22:53;9.32;;;6.25;;
39788;SDS011;25478;42.626;23.320;2022-09-03T06:25:19;8.60;;;5.65;;
39788;SDS011;25478;42.626;23.320;2022-09-03T06:27:45;9.73;;;6.00;;
39788;SDS011;25478;42.626;23.320;2022-09-03T06:30:12;8.60;;;6.30;;
39788;SDS011;25478;42.626;23.320;2022-09-03T06:32:47;9.38;;;6.35;;
39788;SDS011;25478;42.626;23.320;2022-09-03T06:35:18;9.15;;;5.68;;
39788;SDS011;25478;42.626;23.320;2022-09-03T06:37:44;8.65;;;5.80;;
39788;SDS011;25478;42.626;23.320;2022-09-03T06:40:10;9.02;;;5.78;;
39788;SDS011;25478;42.626;23.320;2022-09-03T06:42:54;9.02;;;5.40;;
39788;SDS011;25478;42.626;23.320;2022-09-03T06:45:23;7.55;;;5.35;;
39788;SDS011;25478;42.626;23.320;2022-09-03T06:47:48;8.13;;;5.18;;
39788;SDS011;25478;42.626;23.320;2022-09-03T06:50:14;8.38;;;5.93;;
39788;SDS011;25478;42.626;23.320;2022-09-03T06:52:42;8.98;;;5.85;;
39788;SDS011;25478;42.626;23.320;2022-09-03T06:55:07;9.75;;;5.88;;
39788;SDS011;25478;42.626;23.320;2022-09-03T06:57:33;9.75;;;6.53;;
39788;SDS011;25478;42.626;23.320;2022-09-03T06:59:59;9.40;;;6.65;;
39788;SDS011;25478;42.626;23.320;2022-09-03T07:02:27;8.48;;;6.32;;
39788;SDS011;25478;42.626;23.320;2022-09-03T07:04:52;9.88;;;6.57;;
39788;SDS011;25478;42.626;23.320;2022-09-03T07:07:18;8.43;;;5.82;;
39788;SDS011;25478;42.626;23.320;2022-09-03T07:09:43;9.77;;;6.32;;
39788;SDS011;25478;42.626;23.320;2022-09-03T07:12:09;10.15;;;6.75;;
39788;SDS011;25478;42.626;23.320;2022-09-03T07:14:36;9.40;;;6.70;;
39788;SDS011;25478;42.626;23.320;2022-09-03T07:17:01;8.82;;;6.63;;
39788;SDS011;25478;42.626;23.320;2022-09-03T07:19:27;9.07;;;6.07;;
39788;SDS011;25478;42.626;23.320;2022-09-03T07:21:52;8.63;;;6.10;;
39788;SDS011;25478;42.626;23.320;2022-09-03T07:24:18;8.68;;;6.00;;
39788;SDS011;25478;42.626;23.320;2022-09-03T07:26:46;10.10;;;6.25;;
39788;SDS011;25478;42.626;23.320;2022-09-03T07:29:13;8.82;;;6.18;;
39788;SDS011;25478;42.626;23.320;2022-09-03T07:31:41;9.85;;;6.43;;
39788;SDS011;25478;42.626;23.320;2022-09-03T07:34:08;10.13;;;6.38;;
39788;SDS011;25478;42.626;23.320;2022-09-03T07:36:43;10.60;;;6.95;;
39788;SDS011;25478;42.626;23.320;2022-09-03T07:39:15;8.70;;;6.75;;
39788;SDS011;25478;42.626;23.320;2022-09-03T07:41:42;8.88;;;6.72;;
39788;SDS011;25478;42.626;23.320;2022-09-03T07:44:09;10.65;;;6.88;;
39788;SDS011;25478;42.626;23.320;2022-09-03T07:46:36;8.90;;;6.47;;
39788;SDS011;25478;42.626;23.320;2022-09-03T07:49:03;8.88;;;6.43;;
39788;SDS011;25478;42.626;23.320;2022-09-03T07:51:31;8.57;;;6.15;;
39788;SDS011;25478;42.626;23.320;2022-09-03T07:54:01;10.57;;;6.72;;
39788;SDS011;25478;42.626;23.320;2022-09-03T07:56:28;7.47;;;5.82;;
39788;SDS011;25478;42.626;23.320;2022-09-03T07:58:55;9.70;;;6.55;;
39788;SDS011;25478;42.626;23.320;2022-09-03T08:01:22;8.85;;;6.43;;
39788;SDS011;25478;42.626;23.320;2022-09-03T08:03:49;9.57;;;6.35;;
39788;SDS011;25478;42.626;23.320;2022-09-03T08:06:18;9.15;;;6.18;;
39788;SDS011;25478;42.626;23.320;2022-09-03T08:08:46;9.75;;;6.25;;
39788;SDS011;25478;42.626;23.320;2022-09-03T08:11:13;9.10;;;5.80;;
39788;SDS011;25478;42.626;23.320;2022-09-03T08:16:06;8.60;;;6.28;;
39788;SDS011;25478;42.626;23.320;2022-09-03T08:18:33;7.55;;;5.50;;
39788;SDS011;25478;42.626;23.320;2022-09-03T08:21:03;8.07;;;6.15;;
39788;SDS011;25478;42.626;23.320;2022-09-03T08:23:40;8.93;;;5.85;;
39788;SDS011;25478;42.626;23.320;2022-09-03T08:26:07;8.82;;;5.90;;
39788;SDS011;25478;42.626;23.320;2022-09-03T08:28:33;9.57;;;6.18;;
39788;SDS011;25478;42.626;23.320;2022-09-03T08:31:04;7.72;;;5.80;;
39788;SDS011;25478;42.626;23.320;2022-09-03T08:33:31;9.23;;;6.63;;
39788;SDS011;25478;42.626;23.320;2022-09-03T08:36:06;12.65;;;7.03;;
39788;SDS011;25478;42.626;23.320;2022-09-03T08:38:34;8.95;;;6.70;;
39788;SDS011;25478;42.626;23.320;2022-09-03T08:46:50;8.10;;;6.18;;
39788;SDS011;25478;42.626;23.320;2022-09-03T08:52:04;8.75;;;6.22;;
39788;SDS011;25478;42.626;23.320;2022-09-03T08:54:33;11.77;;;6.85;;
39788;SDS011;25478;42.626;23.320;2022-09-03T08:57:01;9.05;;;6.47;;
39788;SDS011;25478;42.626;23.320;2022-09-03T08:59:30;10.45;;;7.20;;
39788;SDS011;25478;42.626;23.320;2022-09-03T09:02:16;9.98;;;6.90;;
39788;SDS011;25478;42.626;23.320;2022-09-03T09:05:02;11.40;;;7.45;;
39788;SDS011;25478;42.626;23.320;2022-09-03T09:23:06;10.57;;;7.03;;
39788;SDS011;25478;42.626;23.320;2022-09-03T09:25:40;9.30;;;6.95;;
39788;SDS011;25478;42.626;23.320;2022-09-03T09:28:16;11.18;;;7.90;;
39788;SDS011;25478;42.626;23.320;2022-09-03T09:30:45;10.43;;;7.65;;
39788;SDS011;25478;42.626;23.320;2022-09-03T09:33:13;8.90;;;7.15;;
39788;SDS011;25478;42.626;23.320;2022-09-03T09:35:39;11.48;;;7.30;;
39788;SDS011;25478;42.626;23.320;2022-09-03T09:38:07;9.18;;;7.13;;
39788;SDS011;25478;42.626;23.320;2022-09-03T09:40:34;9.15;;;7.07;;
39788;SDS011;25478;42.626;23.320;2022-09-03T09:43:06;9.65;;;7.00;;
39788;SDS011;25478;42.626;23.320;2022-09-03T09:45:32;11.85;;;7.43;;
39788;SDS011;25478;42.626;23.320;2022-09-03T09:47:59;9.98;;;7.53;;
39788;SDS011;25478;42.626;23.320;2022-09-03T09:50:26;9.55;;;7.28;;
39788;SDS011;25478;42.626;23.320;2022-09-03T09:53:07;9.38;;;7.43;;
39788;SDS011;25478;42.626;23.320;2022-09-03T09:55:55;9.18;;;7.65;;
39788;SDS011;25478;42.626;23.320;2022-09-03T09:58:25;9.55;;;7.38;;
39788;SDS011;25478;42.626;23.320;2022-09-03T10:00:59;10.07;;;7.32;;
39788;SDS011;25478;42.626;23.320;2022-09-03T10:03:38;9.95;;;7.05;;
39788;SDS011;25478;42.626;23.320;2022-09-03T10:06:12;9.13;;;6.93;;
39788;SDS011;25478;42.626;23.320;2022-09-03T10:09:04;7.65;;;5.90;;
39788;SDS011;25478;42.626;23.320;2022-09-03T10:11:48;9.38;;;6.47;;
39788;SDS011;25478;42.626;23.320;2022-09-03T10:19:42;8.73;;;6.28;;
39788;SDS011;25478;42.626;23.320;2022-09-03T10:22:38;14.52;;;7.13;;
39788;SDS011;25478;42.626;23.320;2022-09-03T10:25:08;8.85;;;6.55;;
39788;SDS011;25478;42.626;23.320;2022-09-03T10:27:34;8.82;;;6.70;;
39788;SDS011;25478;42.626;23.320;2022-09-03T10:30:02;8.68;;;6.70;;
39788;SDS011;25478;42.626;23.320;2022-09-03T10:35:22;8.55;;;6.88;;
39788;SDS011;25478;42.626;23.320;2022-09-03T10:38:05;11.02;;;7.68;;
39788;SDS011;25478;42.626;23.320;2022-09-03T10:40:41;10.02;;;7.30;;
39788;SDS011;25478;42.626;23.320;2022-09-03T10:46:15;9.45;;;7.07;;
39788;SDS011;25478;42.626;23.320;2022-09-03T10:51:35;8.35;;;6.82;;
39788;SDS011;25478;42.626;23.320;2022-09-03T11:02:29;9.20;;;5.88;;
39788;SDS011;25478;42.626;23.320;2022-09-03T11:05:13;9.38;;;6.68;;
39788;SDS011;25478;42.626;23.320;2022-09-03T11:07:47;8.52;;;6.32;;
39788;SDS011;25478;42.626;23.320;2022-09-03T11:10:24;7.13;;;5.82;;
39788;SDS011;25478;42.626;23.320;2022-09-03T11:13:13;7.80;;;6.00;;
39788;SDS011;25478;42.626;23.320;2022-09-03T11:16:10;7.82;;;5.50;;
39788;SDS011;25478;42.626;23.320;2022-09-03T11:18:43;8.60;;;5.95;;
39788;SDS011;25478;42.626;23.320;2022-09-03T11:21:17;7.47;;;5.93;;
39788;SDS011;25478;42.626;23.320;2022-09-03T11:23:46;8.52;;;5.88;;
39788;SDS011;25478;42.626;23.320;2022-09-03T11:26:18;7.88;;;5.97;;
39788;SDS011;25478;42.626;23.320;2022-09-03T11:28:56;6.57;;;5.38;;
39788;SDS011;25478;42.626;23.320;2022-09-03T11:36:50;7.55;;;5.18;;
39788;SDS011;25478;42.626;23.320;2022-09-03T11:39:32;8.10;;;5.72;;
39788;SDS011;25478;42.626;23.320;2022-09-03T11:42:04;6.85;;;5.20;;
39788;SDS011;25478;42.626;23.320;2022-09-03T11:44:37;7.27;;;5.33;;
39788;SDS011;25478;42.626;23.320;2022-09-03T11:49:49;7.82;;;5.70;;
39788;SDS011;25478;42.626;23.320;2022-09-03T11:52:29;7.15;;;4.85;;
39788;SDS011;25478;42.626;23.320;2022-09-03T11:55:04;8.10;;;5.07;;
39788;SDS011;25478;42.626;23.320;2022-09-03T11:57:31;6.03;;;4.65;;
39788;SDS011;25478;42.626;23.320;2022-09-03T12:00:14;6.53;;;4.47;;
39788;SDS011;25478;42.626;23.320;2022-09-03T12:03:03;7.43;;;5.28;;
39788;SDS011;25478;42.626;23.320;2022-09-03T12:08:11;5.93;;;4.30;;
39788;SDS011;25478;42.626;23.320;2022-09-03T12:18:50;5.90;;;4.57;;
39788;SDS011;25478;42.626;23.320;2022-09-03T12:21:21;6.20;;;4.88;;
39788;SDS011;25478;42.626;23.320;2022-09-03T12:23:51;6.32;;;4.65;;
39788;SDS011;25478;42.626;23.320;2022-09-03T12:26:22;6.18;;;4.95;;
39788;SDS011;25478;42.626;23.320;2022-09-03T12:28:58;6.30;;;4.60;;
39788;SDS011;25478;42.626;23.320;2022-09-03T12:31:26;5.72;;;4.13;;
39788;SDS011;25478;42.626;23.320;2022-09-03T12:36:24;7.18;;;4.25;;
39788;SDS011;25478;42.626;23.320;2022-09-03T12:38:52;6.15;;;4.45;;
39788;SDS011;25478;42.626;23.320;2022-09-03T12:41:25;5.45;;;4.15;;
39788;SDS011;25478;42.626;23.320;2022-09-03T12:43:54;6.15;;;4.40;;
39788;SDS011;25478;42.626;23.320;2022-09-03T12:46:23;7.47;;;5.05;;
39788;SDS011;25478;42.626;23.320;2022-09-03T12:48:53;6.88;;;5.28;;
39788;SDS011;25478;42.626;23.320;2022-09-03T12:51:20;6.70;;;4.97;;
39788;SDS011;25478;42.626;23.320;2022-09-03T12:53:46;7.90;;;5.30;;
39788;SDS011;25478;42.626;23.320;2022-09-03T12:56:14;7.32;;;5.15;;
39788;SDS011;25478;42.626;23.320;2022-09-03T12:58:44;7.10;;;4.82;;
39788;SDS011;25478;42.626;23.320;2022-09-03T13:01:29;7.45;;;4.90;;
39788;SDS011;25478;42.626;23.320;2022-09-03T13:04:03;9.05;;;5.07;;
39788;SDS011;25478;42.626;23.320;2022-09-03T13:06:38;7.18;;;5.25;;
39788;SDS011;25478;42.626;23.320;2022-09-03T13:09:17;8.45;;;5.53;;
39788;SDS011;25478;42.626;23.320;2022-09-03T13:11:47;7.13;;;5.13;;
39788;SDS011;25478;42.626;23.320;2022-09-03T13:14:13;7.10;;;4.97;;
39788;SDS011;25478;42.626;23.320;2022-09-03T13:35:32;7.13;;;4.80;;
39788;SDS011;25478;42.626;23.320;2022-09-03T13:41:19;5.57;;;4.18;;
39788;SDS011;25478;42.626;23.320;2022-09-03T13:44:10;6.10;;;4.25;;
39788;SDS011;25478;42.626;23.320;2022-09-03T13:49:32;6.82;;;4.88;;
39788;SDS011;25478;42.626;23.320;2022-09-03T13:54:58;6.32;;;4.55;;
39788;SDS011;25478;42.626;23.320;2022-09-03T14:09:22;6.90;;;3.95;;
39788;SDS011;25478;42.626;23.320;2022-09-03T14:15:19;7.03;;;3.97;;
39788;SDS011;25478;42.626;23.320;2022-09-03T14:23:29;6.53;;;4.63;;
39788;SDS011;25478;42.626;23.320;2022-09-03T14:26:04;7.13;;;5.15;;
39788;SDS011;25478;42.626;23.320;2022-09-03T14:33:48;5.85;;;4.40;;
39788;SDS011;25478;42.626;23.320;2022-09-03T14:36:36;6.63;;;4.43;;
39788;SDS011;25478;42.626;23.320;2022-09-03T14:39:11;7.05;;;4.68;;
39788;SDS011;25478;42.626;23.320;2022-09-03T14:44:31;7.43;;;4.80;;
39788;SDS011;25478;42.626;23.320;2022-09-03T14:50:10;6.75;;;4.40;;
39788;SDS011;25478;42.626;23.320;2022-09-03T15:00:53;7.78;;;4.45;;
39788;SDS011;25478;42.626;23.320;2022-09-03T15:09:30;7.20;;;4.55;;
39788;SDS011;25478;42.626;23.320;2022-09-03T15:12:02;7.43;;;4.73;;
39788;SDS011;25478;42.626;23.320;2022-09-03T15:14:45;6.30;;;4.10;;
39788;SDS011;25478;42.626;23.320;2022-09-03T15:31:04;6.50;;;4.13;;
39788;SDS011;25478;42.626;23.320;2022-09-03T15:36:39;6.25;;;3.92;;
39788;SDS011;25478;42.626;23.320;2022-09-03T15:39:10;13.82;;;4.72;;
39788;SDS011;25478;42.626;23.320;2022-09-03T15:44:21;8.05;;;4.95;;
39788;SDS011;25478;42.626;23.320;2022-09-03T15:49:24;6.97;;;4.95;;
39788;SDS011;25478;42.626;23.320;2022-09-03T15:57:40;8.18;;;5.22;;
39788;SDS011;25478;42.626;23.320;2022-09-03T16:00:10;9.05;;;4.80;;
39788;SDS011;25478;42.626;23.320;2022-09-03T16:05:43;8.32;;;5.13;;
39788;SDS011;25478;42.626;23.320;2022-09-03T16:10:53;10.50;;;6.07;;
39788;SDS011;25478;42.626;23.320;2022-09-03T16:13:27;8.40;;;5.60;;
39788;SDS011;25478;42.626;23.320;2022-09-03T16:19:23;9.85;;;5.85;;
39788;SDS011;25478;42.626;23.320;2022-09-03T16:25:14;9.43;;;6.05;;
39788;SDS011;25478;42.626;23.320;2022-09-03T16:33:19;12.02;;;6.68;;
39788;SDS011;25478;42.626;23.320;2022-09-03T16:36:00;10.00;;;6.88;;
39788;SDS011;25478;42.626;23.320;2022-09-03T16:47:01;11.50;;;6.88;;
39788;SDS011;25478;42.626;23.320;2022-09-03T16:49:39;10.60;;;6.80;;
39788;SDS011;25478;42.626;23.320;2022-09-03T16:57:58;10.85;;;6.32;;
39788;SDS011;25478;42.626;23.320;2022-09-03T17:01:19;10.55;;;6.75;;
39788;SDS011;25478;42.626;23.320;2022-09-03T17:03:36;10.95;;;7.25;;
39788;SDS011;25478;42.626;23.320;2022-09-03T17:06:15;11.43;;;6.85;;
39788;SDS011;25478;42.626;23.320;2022-09-03T17:11:50;9.98;;;6.53;;
39788;SDS011;25478;42.626;23.320;2022-09-03T17:17:11;9.32;;;6.80;;
39788;SDS011;25478;42.626;23.320;2022-09-03T17:22:39;10.35;;;7.03;;
39788;SDS011;25478;42.626;23.320;2022-09-03T17:25:53;9.80;;;7.30;;
39788;SDS011;25478;42.626;23.320;2022-09-03T17:31:53;10.55;;;7.85;;
39788;SDS011;25478;42.626;23.320;2022-09-03T17:36:51;11.63;;;7.57;;
39788;SDS011;25478;42.626;23.320;2022-09-03T17:50:33;12.23;;;8.65;;
39788;SDS011;25478;42.626;23.320;2022-09-03T17:53:33;12.63;;;8.18;;
39788;SDS011;25478;42.626;23.320;2022-09-03T17:56:25;11.80;;;8.18;;
39788;SDS011;25478;42.626;23.320;2022-09-03T17:59:04;12.10;;;8.93;;
39788;SDS011;25478;42.626;23.320;2022-09-03T18:01:44;16.65;;;8.88;;
39788;SDS011;25478;42.626;23.320;2022-09-03T18:07:18;14.18;;;9.45;;
39788;SDS011;25478;42.626;23.320;2022-09-03T18:12:55;15.32;;;10.38;;
39788;SDS011;25478;42.626;23.320;2022-09-03T18:18:03;13.50;;;9.60;;
39788;SDS011;25478;42.626;23.320;2022-09-03T18:20:41;15.35;;;9.30;;
39788;SDS011;25478;42.626;23.320;2022-09-03T18:23:39;13.25;;;9.52;;
39788;SDS011;25478;42.626;23.320;2022-09-03T18:26:28;14.73;;;9.30;;
39788;SDS011;25478;42.626;23.320;2022-09-03T18:29:31;12.93;;;9.18;;
39788;SDS011;25478;42.626;23.320;2022-09-03T18:32:20;14.27;;;9.73;;
39788;SDS011;25478;42.626;23.320;2022-09-03T18:35:06;16.83;;;10.35;;
39788;SDS011;25478;42.626;23.320;2022-09-03T18:37:52;14.90;;;9.95;;
39788;SDS011;25478;42.626;23.320;2022-09-03T18:46:50;21.67;;;12.75;;
39788;SDS011;25478;42.626;23.320;2022-09-03T18:49:50;15.70;;;11.05;;
39788;SDS011;25478;42.626;23.320;2022-09-03T18:52:59;13.07;;;9.90;;
39788;SDS011;25478;42.626;23.320;2022-09-03T19:01:54;17.13;;;9.98;;
39788;SDS011;25478;42.626;23.320;2022-09-03T19:09:05;13.98;;;9.57;;
39788;SDS011;25478;42.626;23.320;2022-09-03T19:11:43;15.70;;;9.00;;
39788;SDS011;25478;42.626;23.320;2022-09-03T19:14:35;13.48;;;8.98;;
39788;SDS011;25478;42.626;23.320;2022-09-03T19:20:30;16.50;;;9.43;;
39788;SDS011;25478;42.626;23.320;2022-09-03T19:23:18;14.13;;;8.43;;
39788;SDS011;25478;42.626;23.320;2022-09-03T19:26:17;14.98;;;8.32;;
39788;SDS011;25478;42.626;23.320;2022-09-03T19:29:13;12.30;;;8.32;;
39788;SDS011;25478;42.626;23.320;2022-09-03T19:32:17;13.18;;;8.68;;
39788;SDS011;25478;42.626;23.320;2022-09-03T19:38:15;13.68;;;8.52;;
39788;SDS011;25478;42.626;23.320;2022-09-03T19:47:06;13.20;;;8.40;;
39788;SDS011;25478;42.626;23.320;2022-09-03T19:50:15;14.18;;;8.38;;
39788;SDS011;25478;42.626;23.320;2022-09-03T19:53:11;13.95;;;8.73;;
39788;SDS011;25478;42.626;23.320;2022-09-03T19:56:01;14.93;;;8.75;;
39788;SDS011;25478;42.626;23.320;2022-09-03T19:58:55;12.98;;;7.72;;
39788;SDS011;25478;42.626;23.320;2022-09-03T20:01:46;14.07;;;8.52;;
39788;SDS011;25478;42.626;23.320;2022-09-03T20:04:32;13.38;;;8.45;;
39788;SDS011;25478;42.626;23.320;2022-09-03T20:07:19;11.57;;;7.53;;
39788;SDS011;25478;42.626;23.320;2022-09-03T20:10:04;13.63;;;8.48;;
39788;SDS011;25478;42.626;23.320;2022-09-03T20:13:08;14.63;;;7.65;;
39788;SDS011;25478;42.626;23.320;2022-09-03T20:15:46;12.25;;;7.55;;
39788;SDS011;25478;42.626;23.320;2022-09-03T20:18:25;12.40;;;7.28;;
39788;SDS011;25478;42.626;23.320;2022-09-03T20:23:32;11.82;;;7.65;;
39788;SDS011;25478;42.626;23.320;2022-09-03T20:31:14;12.77;;;8.32;;
39788;SDS011;25478;42.626;23.320;2022-09-03T20:36:43;12.85;;;8.63;;